Time;durP1;ratioP1;P1;durP2;ratioP2;P2;SDS_P1;SDS_P2;PMS_P1;PMS_P2;Temp;Humidity;BMP_temperature;BMP_pressure;BME280_temperature;BME280_humidity;BME280_pressure;Samples;Min_cycle;Max_cycle;Signal;HPM_P1;HPM_P2
2022/01/25 00:24:20;;;;;;;40.83;20.83;;;3.50;99.90;;;;;;4956032;29;20089;-74
2022/01/25 00:32:17;;;;;;;37.67;19.27;;;3.30;99.90;;;;;;4925394;29;20075;-75
2022/01/25 00:34:43;;;;;;;40.35;20.85;;;3.10;99.90;;;;;;4937864;29;20153;-75
2022/01/25 00:37:09;;;;;;;36.80;19.40;;;3.10;99.90;;;;;;4955311;29;20028;-75
2022/01/25 00:39:38;;;;;;;38.80;20.17;;;3.00;99.90;;;;;;4955963;29;20024;-74
2022/01/25 00:42:07;;;;;;;35.25;20.33;;;2.90;99.90;;;;;;4955377;29;20095;-74
2022/01/25 00:44:39;;;;;;;38.80;20.52;;;2.90;99.90;;;;;;4955112;29;20027;-73
2022/01/25 00:47:07;;;;;;;33.13;18.75;;;3.00;99.90;;;;;;4955648;29;20078;-74
2022/01/25 00:49:39;;;;;;;35.63;19.45;;;3.20;99.90;;;;;;4955317;29;20023;-75
2022/01/25 00:52:20;;;;;;;38.20;20.33;;;3.30;99.90;;;;;;4955786;29;20038;-74
2022/01/25 00:54:47;;;;;;;33.63;18.58;;;2.90;99.90;;;;;;4955772;29;20386;-73
2022/01/25 00:57:14;;;;;;;54.53;21.40;;;3.20;99.90;;;;;;4955232;29;20027;-75
2022/01/25 00:59:40;;;;;;;42.97;21.42;;;3.40;99.90;;;;;;4955095;29;20110;-75
2022/01/25 01:02:12;;;;;;;39.10;20.02;;;3.00;99.90;;;;;;4937869;29;20118;-76
2022/01/25 01:04:41;;;;;;;40.17;19.92;;;2.60;99.90;;;;;;4955071;28;20374;-74
2022/01/25 01:07:08;;;;;;;42.47;21.45;;;2.80;99.90;;;;;;4954846;29;20079;-74
2022/01/25 01:09:37;;;;;;;37.25;19.55;;;3.00;99.90;;;;;;4955068;29;20078;-75
2022/01/25 01:12:11;;;;;;;37.97;20.08;;;3.10;99.90;;;;;;4954911;29;20074;-74
2022/01/25 01:14:58;;;;;;;33.28;18.77;;;3.20;99.90;;;;;;4955302;29;20023;-75
2022/01/25 01:31:04;;;;;;;37.15;18.40;;;3.20;99.90;;;;;;4955318;29;20038;-75
2022/01/25 01:43:59;;;;;;;33.03;19.25;;;3.50;99.90;;;;;;4955061;29;20132;-75
2022/01/25 01:46:38;;;;;;;36.72;19.65;;;3.50;99.90;;;;;;4955415;28;20023;-75
2022/01/25 01:49:06;;;;;;;34.45;18.52;;;3.50;99.90;;;;;;4958718;29;20389;-76
2022/01/25 01:51:38;;;;;;;30.48;17.77;;;3.50;99.90;;;;;;4958346;29;20474;-77
2022/01/25 01:54:10;;;;;;;33.60;17.35;;;3.50;99.90;;;;;;4958616;29;20517;-75
2022/01/25 01:56:36;;;;;;;31.15;17.13;;;3.60;99.90;;;;;;4956770;29;20037;-74
2022/01/25 01:59:05;;;;;;;33.88;18.27;;;3.50;99.90;;;;;;4958430;29;20386;-74
2022/01/25 02:01:32;;;;;;;30.50;16.75;;;3.50;99.90;;;;;;4958440;29;20118;-75
2022/01/25 02:04:00;;;;;;;30.90;17.02;;;3.50;99.90;;;;;;4956814;28;20462;-73
2022/01/25 02:06:26;;;;;;;30.40;16.02;;;3.60;99.90;;;;;;4957966;29;20035;-75
2022/01/25 02:08:52;;;;;;;46.42;19.58;;;3.70;99.90;;;;;;4958256;29;20166;-75
2022/01/25 02:11:18;;;;;;;32.65;17.17;;;3.50;99.90;;;;;;4958131;29;20477;-73
2022/01/25 02:13:45;;;;;;;33.75;16.52;;;3.30;99.90;;;;;;4956752;29;20370;-74
2022/01/25 02:16:21;;;;;;;33.03;18.65;;;3.10;99.90;;;;;;4957934;29;20019;-74
2022/01/25 02:24:16;;;;;;;30.40;16.48;;;3.50;99.90;;;;;;4958069;29;20066;-75
2022/01/25 02:26:42;;;;;;;30.52;17.20;;;3.50;99.90;;;;;;4956393;29;20040;-74
2022/01/25 02:29:08;;;;;;;27.17;15.88;;;3.60;99.90;;;;;;4957734;29;20545;-74
2022/01/25 02:31:34;;;;;;;35.75;17.27;;;3.60;99.90;;;;;;4957590;29;20033;-75
2022/01/25 02:33:59;;;;;;;27.25;15.55;;;3.50;99.90;;;;;;4957485;29;20028;-75
2022/01/25 02:36:28;;;;;;;32.05;16.67;;;3.40;99.90;;;;;;4957523;29;20030;-73
2022/01/25 02:38:55;;;;;;;32.83;17.85;;;3.40;99.90;;;;;;4957566;29;20023;-73
2022/01/25 02:41:22;;;;;;;44.63;19.80;;;3.10;99.90;;;;;;4957828;29;20019;-73
2022/01/25 02:43:48;;;;;;;32.97;17.88;;;3.00;99.90;;;;;;4957739;29;20434;-76
2022/01/25 02:48:59;;;;;;;30.67;16.90;;;3.00;99.90;;;;;;4957679;29;20507;-73
2022/01/25 02:51:27;;;;;;;29.35;16.95;;;3.10;99.90;;;;;;4957555;29;20541;-76
2022/01/25 02:53:54;;;;;;;35.60;20.67;;;3.30;99.90;;;;;;4957279;29;20035;-74
2022/01/25 02:56:21;;;;;;;32.67;18.50;;;3.30;99.90;;;;;;4957268;29;20102;-74
2022/01/25 02:58:47;;;;;;;35.40;20.08;;;3.20;99.90;;;;;;4956763;28;20031;-75
2022/01/25 03:01:13;;;;;;;29.17;16.88;;;3.30;99.90;;;;;;4955687;29;20054;-74
2022/01/25 03:03:39;;;;;;;29.95;16.77;;;3.40;99.90;;;;;;4957090;28;20070;-73
2022/01/25 03:06:05;;;;;;;32.97;16.70;;;3.40;99.90;;;;;;4956785;29;20031;-75
2022/01/25 03:08:31;;;;;;;26.27;15.68;;;3.30;99.90;;;;;;4939459;29;20028;-74
2022/01/25 03:10:57;;;;;;;29.65;17.25;;;3.00;99.90;;;;;;4957151;29;20062;-75
2022/01/25 03:13:30;;;;;;;33.97;17.02;;;3.00;99.90;;;;;;4957052;29;20055;-75
2022/01/25 03:16:00;;;;;;;32.85;17.02;;;3.00;99.90;;;;;;4939382;29;20057;-73
2022/01/25 03:21:18;;;;;;;30.17;16.75;;;2.60;99.90;;;;;;4957014;29;20055;-76
2022/01/25 03:23:45;;;;;;;32.50;17.00;;;2.40;99.90;;;;;;4955095;29;20031;-75
2022/01/25 03:26:11;;;;;;;46.28;18.02;;;2.40;99.90;;;;;;4955310;29;20386;-74
2022/01/25 03:28:36;;;;;;;29.08;16.75;;;2.40;99.90;;;;;;4956640;29;20030;-73
2022/01/25 03:31:03;;;;;;;26.60;16.20;;;2.40;99.90;;;;;;4956537;29;20019;-74
2022/01/25 03:33:29;;;;;;;27.60;16.08;;;2.70;99.90;;;;;;4956507;29;20032;-75
2022/01/25 03:35:54;;;;;;;34.22;18.77;;;2.70;99.90;;;;;;4957072;29;20024;-74
2022/01/25 03:38:20;;;;;;;30.45;17.50;;;2.80;99.90;;;;;;4955060;29;20027;-74
2022/01/25 03:40:46;;;;;;;33.72;18.02;;;3.00;99.90;;;;;;4956563;29;20081;-75
2022/01/25 03:43:14;;;;;;;30.42;17.35;;;3.20;99.90;;;;;;4956927;29;20051;-74
2022/01/25 03:45:44;;;;;;;41.65;18.33;;;3.00;99.90;;;;;;4956483;29;20024;-75
2022/01/25 03:50:39;;;;;;;27.20;15.43;;;2.80;99.90;;;;;;4956427;29;20063;-73
2022/01/25 03:53:06;;;;;;;33.03;16.70;;;2.90;99.90;;;;;;4956111;29;20397;-73
2022/01/25 03:55:32;;;;;;;25.65;15.15;;;3.00;99.90;;;;;;4956047;29;20027;-74
2022/01/25 03:57:58;;;;;;;24.70;15.52;;;3.00;99.90;;;;;;4956100;29;20401;-74
2022/01/25 04:00:24;;;;;;;26.08;14.48;;;3.10;99.90;;;;;;4955968;29;20028;-73
2022/01/25 04:02:55;;;;;;;24.88;14.57;;;3.20;99.90;;;;;;4955976;28;20037;-74
2022/01/25 04:05:33;;;;;;;26.02;14.90;;;3.20;99.90;;;;;;4954400;29;20023;-73
2022/01/25 04:07:59;;;;;;;28.05;15.52;;;3.20;99.90;;;;;;4938266;29;20532;-75
2022/01/25 04:10:24;;;;;;;26.00;14.57;;;3.30;99.90;;;;;;4955507;28;20055;-75
2022/01/25 04:12:50;;;;;;;31.13;15.90;;;3.10;99.90;;;;;;4954530;29;20398;-74
2022/01/25 04:15:16;;;;;;;27.30;14.98;;;2.90;99.90;;;;;;4955852;29;20078;-74
2022/01/25 04:17:45;;;;;;;23.88;14.18;;;2.90;99.90;;;;;;4955762;29;20027;-75
2022/01/25 04:20:25;;;;;;;27.13;15.00;;;2.90;99.90;;;;;;4955982;29;20102;-74
2022/01/25 04:25:35;;;;;;;23.58;14.52;;;3.20;99.90;;;;;;4955970;29;20524;-75
2022/01/25 04:28:01;;;;;;;28.75;14.25;;;3.10;99.90;;;;;;4955634;29;20027;-75
2022/01/25 04:30:27;;;;;;;23.83;14.95;;;3.10;99.90;;;;;;4955569;29;20532;-75
2022/01/25 04:33:01;;;;;;;24.92;15.00;;;3.20;99.90;;;;;;4955510;29;20114;-76
2022/01/25 04:49:17;;;;;;;25.50;14.55;;;3.20;99.90;;;;;;4955351;29;20128;-74
2022/01/25 04:57:08;;;;;;;25.58;14.85;;;3.10;99.90;;;;;;4955803;29;20066;-74
2022/01/25 05:02:32;;;;;;;27.95;16.25;;;3.10;99.90;;;;;;4955727;29;20038;-74
2022/01/25 05:05:04;;;;;;;29.88;16.52;;;3.20;99.90;;;;;;4953610;29;20034;-74
2022/01/25 05:07:40;;;;;;;28.45;15.98;;;3.20;99.90;;;;;;4955163;29;20576;-73
2022/01/25 05:10:08;;;;;;;29.15;17.30;;;3.20;99.90;;;;;;4953574;29;20039;-74
2022/01/25 05:12:43;;;;;;;27.92;16.45;;;3.20;99.90;;;;;;4954951;29;20019;-74
2022/01/25 05:17:46;;;;;;;29.58;17.23;;;3.30;99.90;;;;;;4954824;29;20042;-76
2022/01/25 05:22:55;;;;;;;29.08;17.42;;;3.30;99.90;;;;;;4958763;29;20110;-74
2022/01/25 05:25:21;;;;;;;30.30;17.08;;;3.30;99.90;;;;;;4959129;29;20047;-73
2022/01/25 05:27:47;;;;;;;30.85;15.70;;;3.30;99.90;;;;;;4958810;29;20034;-74
2022/01/25 05:30:13;;;;;;;29.88;16.63;;;3.20;99.90;;;;;;4959083;29;20086;-75
2022/01/25 05:32:38;;;;;;;26.75;16.73;;;3.20;99.90;;;;;;4959192;29;20027;-75
2022/01/25 05:35:05;;;;;;;28.13;16.10;;;3.20;99.90;;;;;;4958710;29;20055;-73
2022/01/25 05:37:39;;;;;;;29.13;16.00;;;3.30;99.90;;;;;;4957424;29;20027;-75
2022/01/25 05:40:12;;;;;;;27.92;16.55;;;3.30;99.90;;;;;;4957143;29;20051;-75
2022/01/25 05:45:17;;;;;;;31.35;17.48;;;3.20;99.90;;;;;;4958841;29;20117;-74
2022/01/25 05:47:44;;;;;;;29.38;17.45;;;3.20;99.90;;;;;;4959063;29;20031;-73
2022/01/25 05:50:12;;;;;;;27.13;17.15;;;3.20;99.90;;;;;;4958691;29;20090;-73
2022/01/25 05:52:38;;;;;;;26.52;16.20;;;3.20;99.90;;;;;;4958309;29;20077;-76
2022/01/25 05:55:04;;;;;;;27.77;17.48;;;3.20;99.90;;;;;;4958349;29;20482;-75
2022/01/25 05:57:30;;;;;;;40.28;17.27;;;3.10;99.90;;;;;;4958315;29;20508;-75
2022/01/25 05:59:56;;;;;;;27.30;16.70;;;3.10;99.90;;;;;;4958306;29;20047;-75
2022/01/25 06:02:24;;;;;;;30.42;16.92;;;3.00;99.90;;;;;;4958144;28;20500;-75
2022/01/25 06:04:50;;;;;;;33.53;16.83;;;3.00;99.90;;;;;;4958457;29;20034;-74
2022/01/25 06:07:16;;;;;;;31.17;17.02;;;3.00;99.90;;;;;;4957954;29;20062;-75
2022/01/25 06:09:41;;;;;;;29.63;16.70;;;2.90;99.90;;;;;;4958112;29;20027;-73
2022/01/25 06:12:10;;;;;;;27.70;16.00;;;2.90;99.90;;;;;;4958235;29;20027;-74
2022/01/25 06:14:36;;;;;;;34.85;18.30;;;2.80;99.90;;;;;;4958023;29;20135;-74
2022/01/25 06:17:02;;;;;;;28.02;16.02;;;2.70;99.90;;;;;;4956754;29;20023;-75
2022/01/25 06:19:27;;;;;;;32.63;16.88;;;2.80;99.90;;;;;;4957937;29;20031;-73
2022/01/25 06:21:53;;;;;;;30.92;17.63;;;2.80;99.90;;;;;;4957910;29;20023;-75
2022/01/25 06:24:18;;;;;;;39.85;17.08;;;2.90;99.90;;;;;;4957869;29;20031;-76
2022/01/25 06:26:44;;;;;;;33.58;17.48;;;2.90;99.90;;;;;;4957797;29;20539;-73
2022/01/25 06:29:11;;;;;;;31.33;17.30;;;2.80;99.90;;;;;;4957988;29;20122;-74
2022/01/25 06:31:37;;;;;;;34.00;17.77;;;2.70;99.90;;;;;;4957332;28;20070;-74
2022/01/25 06:34:03;;;;;;;33.97;16.33;;;2.80;99.90;;;;;;4957501;29;20031;-73
2022/01/25 06:36:28;;;;;;;31.65;16.33;;;2.70;99.90;;;;;;4957869;29;20062;-75
2022/01/25 06:38:54;;;;;;;32.50;16.48;;;2.70;99.90;;;;;;4957618;29;20024;-73
2022/01/25 06:41:20;;;;;;;32.92;17.75;;;2.60;99.90;;;;;;4957543;29;20015;-74
2022/01/25 06:43:46;;;;;;;30.90;17.88;;;2.40;99.90;;;;;;4957481;29;20444;-74
2022/01/25 06:46:11;;;;;;;32.78;18.35;;;2.50;99.90;;;;;;4957426;29;20139;-74
2022/01/25 06:48:37;;;;;;;28.20;17.73;;;2.60;99.90;;;;;;4957424;29;20106;-74
2022/01/25 06:51:03;;;;;;;29.17;16.92;;;2.60;99.90;;;;;;4957413;29;20024;-73
2022/01/25 06:53:28;;;;;;;31.50;19.08;;;2.80;99.90;;;;;;4957224;29;20031;-73
2022/01/25 06:55:55;;;;;;;31.98;17.55;;;2.90;99.90;;;;;;4957291;29;20023;-74
2022/01/25 06:58:21;;;;;;;33.13;19.15;;;3.00;99.90;;;;;;4957265;29;20486;-73
2022/01/25 07:00:46;;;;;;;30.65;19.17;;;3.10;99.90;;;;;;4957190;29;20035;-74
2022/01/25 07:03:12;;;;;;;35.95;18.05;;;3.10;99.90;;;;;;4957067;28;20400;-74
2022/01/25 07:05:38;;;;;;;30.02;16.95;;;3.10;99.90;;;;;;4957104;29;20033;-74
2022/01/25 07:08:04;;;;;;;29.60;17.23;;;3.00;99.90;;;;;;4956670;29;20138;-75
2022/01/25 07:10:30;;;;;;;35.03;20.98;;;3.00;99.90;;;;;;4957000;29;20403;-73
2022/01/25 07:12:56;;;;;;;37.42;23.02;;;3.20;99.90;;;;;;4956897;29;20035;-74
2022/01/25 07:15:21;;;;;;;31.98;17.55;;;3.20;99.90;;;;;;4956973;29;20585;-73
2022/01/25 07:17:47;;;;;;;29.73;17.55;;;3.20;99.90;;;;;;4956886;29;20028;-73
2022/01/25 07:20:13;;;;;;;31.98;18.50;;;3.20;99.90;;;;;;4957107;29;20031;-74
2022/01/25 07:22:40;;;;;;;34.20;19.40;;;3.20;99.90;;;;;;4956822;29;20028;-73
2022/01/25 07:25:08;;;;;;;41.70;21.98;;;2.90;99.90;;;;;;4957310;29;20027;-74
2022/01/25 07:27:34;;;;;;;48.22;29.52;;;2.90;99.90;;;;;;4957000;29;20027;-74
2022/01/25 07:30:00;;;;;;;36.42;24.65;;;2.90;99.90;;;;;;4956666;29;20032;-74
2022/01/25 07:32:25;;;;;;;50.83;34.50;;;2.90;99.90;;;;;;4956561;29;20638;-73
2022/01/25 07:34:51;;;;;;;45.70;35.30;;;3.10;99.90;;;;;;4956549;29;20023;-75
2022/01/25 07:37:16;;;;;;;35.80;21.58;;;3.10;99.90;;;;;;4956528;29;20386;-73
2022/01/25 07:39:45;;;;;;;40.53;25.88;;;3.20;99.90;;;;;;4956760;29;20486;-74
2022/01/25 07:42:11;;;;;;;35.22;21.45;;;3.20;99.90;;;;;;4956416;29;20401;-75
2022/01/25 07:44:38;;;;;;;33.30;22.45;;;3.20;99.90;;;;;;4955300;28;20102;-74
2022/01/25 07:47:04;;;;;;;28.80;18.42;;;3.30;99.90;;;;;;4956303;29;20023;-76
2022/01/25 07:49:31;;;;;;;31.80;18.48;;;3.30;99.90;;;;;;4956865;29;20054;-74
2022/01/25 07:51:57;;;;;;;31.00;19.58;;;3.30;99.90;;;;;;4956430;29;20386;-76
2022/01/25 07:54:24;;;;;;;31.17;17.20;;;3.30;99.90;;;;;;4971385;28;20366;-78
2022/01/25 07:56:49;;;;;;;38.63;22.33;;;3.30;99.90;;;;;;4975239;28;20023;-76
2022/01/25 07:59:15;;;;;;;37.33;22.35;;;3.30;99.90;;;;;;4975482;28;20105;-77
2022/01/25 08:01:42;;;;;;;39.88;24.38;;;3.20;99.90;;;;;;4957596;28;20061;-76
2022/01/25 08:04:11;;;;;;;38.05;22.02;;;3.10;99.90;;;;;;4973987;28;20489;-75
2022/01/25 08:06:38;;;;;;;32.55;20.45;;;3.20;99.90;;;;;;4975308;28;20070;-77
2022/01/25 08:09:07;;;;;;;33.55;18.83;;;3.20;99.90;;;;;;4957591;28;20042;-77
2022/01/25 08:11:34;;;;;;;36.53;21.13;;;3.20;99.90;;;;;;4975082;28;20571;-76
2022/01/25 08:14:11;;;;;;;35.03;19.80;;;3.30;99.90;;;;;;4975156;28;20031;-76
2022/01/25 08:16:38;;;;;;;32.03;20.30;;;3.30;99.90;;;;;;4975317;28;20496;-77
2022/01/25 08:19:04;;;;;;;34.10;20.67;;;3.20;99.90;;;;;;4975064;28;20066;-77
2022/01/25 08:21:30;;;;;;;31.15;18.77;;;3.20;99.90;;;;;;4975832;28;20035;-75
2022/01/25 08:23:55;;;;;;;34.08;20.90;;;3.30;99.90;;;;;;4974761;28;20026;-75
2022/01/25 08:26:21;;;;;;;30.27;18.42;;;3.30;99.90;;;;;;4974676;28;20027;-76
2022/01/25 08:28:46;;;;;;;28.70;17.20;;;3.30;99.90;;;;;;4973593;28;20023;-74
2022/01/25 08:31:12;;;;;;;33.15;19.63;;;3.30;99.90;;;;;;4973958;28;20037;-77
2022/01/25 08:33:39;;;;;;;31.08;16.70;;;3.20;99.90;;;;;;4973825;28;20038;-78
2022/01/25 08:36:05;;;;;;;33.13;19.58;;;3.30;99.90;;;;;;4974220;28;20027;-80
2022/01/25 08:38:31;;;;;;;30.30;17.58;;;3.20;99.90;;;;;;4973946;28;20077;-75
2022/01/25 08:40:57;;;;;;;32.90;19.17;;;3.20;99.90;;;;;;4974086;28;20050;-74
2022/01/25 08:43:24;;;;;;;32.05;19.70;;;3.00;99.90;;;;;;4973587;28;20027;-75
2022/01/25 08:45:49;;;;;;;37.05;20.63;;;2.90;99.90;;;;;;4973632;28;20531;-75
2022/01/25 08:48:15;;;;;;;39.05;21.63;;;2.60;99.90;;;;;;4983298;28;20038;-75
2022/01/25 08:50:41;;;;;;;36.20;20.55;;;2.50;99.90;;;;;;4974195;28;20041;-75
2022/01/25 08:53:09;;;;;;;35.45;19.20;;;2.70;99.90;;;;;;4974561;28;20026;-75
2022/01/25 08:55:34;;;;;;;32.22;18.92;;;2.90;99.90;;;;;;4954838;28;20031;-75
2022/01/25 08:58:01;;;;;;;33.28;19.20;;;2.90;99.90;;;;;;4966403;28;20110;-75
2022/01/25 09:00:27;;;;;;;32.38;18.63;;;3.20;99.90;;;;;;4974811;28;20058;-75
2022/01/25 09:02:52;;;;;;;35.45;17.05;;;3.10;99.90;;;;;;4974197;28;20105;-74
2022/01/25 09:05:19;;;;;;;33.65;18.73;;;3.10;99.90;;;;;;4974710;28;20481;-74
2022/01/25 09:07:45;;;;;;;29.58;17.33;;;3.10;99.90;;;;;;4973884;28;20054;-74
2022/01/25 09:10:10;;;;;;;34.95;19.75;;;3.20;99.90;;;;;;4974063;28;20022;-73
2022/01/25 09:12:36;;;;;;;29.88;17.30;;;3.30;99.90;;;;;;4974614;28;20062;-75
2022/01/25 09:15:02;;;;;;;31.90;18.23;;;3.50;99.90;;;;;;4974081;28;20026;-73
2022/01/25 09:17:27;;;;;;;28.63;17.20;;;3.50;99.90;;;;;;4974443;28;20027;-73
2022/01/25 09:19:53;;;;;;;30.13;16.90;;;3.30;99.90;;;;;;4974390;28;20094;-74
2022/01/25 09:22:19;;;;;;;34.05;18.02;;;3.40;99.90;;;;;;4974424;28;20053;-73
2022/01/25 09:24:45;;;;;;;62.97;34.53;;;3.40;99.90;;;;;;4974502;28;20035;-74
2022/01/25 09:27:11;;;;;;;32.67;18.02;;;3.50;99.90;;;;;;4974308;28;20038;-78
2022/01/25 09:29:36;;;;;;;50.50;28.58;;;3.40;99.90;;;;;;4974343;28;20484;-78
2022/01/25 09:32:03;;;;;;;41.80;23.80;;;3.50;99.90;;;;;;4974173;28;20035;-78
2022/01/25 09:34:29;;;;;;;68.07;33.90;;;3.60;99.90;;;;;;4973667;28;20054;-76
2022/01/25 09:36:55;;;;;;;35.00;20.20;;;3.50;99.90;;;;;;4974168;28;20520;-77
2022/01/25 09:39:21;;;;;;;34.45;19.45;;;3.60;99.90;;;;;;4974328;28;20046;-80
2022/01/25 09:41:47;;;;;;;32.47;17.40;;;3.50;99.90;;;;;;4974096;28;20031;-80
2022/01/25 09:44:13;;;;;;;74.57;48.78;;;3.60;99.90;;;;;;4973623;28;20026;-75
2022/01/25 09:46:39;;;;;;;33.95;17.77;;;3.50;99.90;;;;;;4973721;28;20035;-75
2022/01/25 09:49:05;;;;;;;30.48;16.05;;;3.40;99.90;;;;;;4973855;28;20101;-77
2022/01/25 09:51:32;;;;;;;29.83;16.50;;;3.50;99.90;;;;;;4973982;28;20062;-75
2022/01/25 09:53:58;;;;;;;30.38;16.13;;;3.60;99.90;;;;;;4973900;28;20061;-76
2022/01/25 09:56:24;;;;;;;31.67;16.98;;;3.50;99.90;;;;;;4973836;28;20054;-74
2022/01/25 09:58:51;;;;;;;28.70;15.57;;;3.60;99.90;;;;;;4973866;28;20019;-75
2022/01/25 10:01:28;;;;;;;34.63;21.15;;;3.60;99.90;;;;;;4973692;28;20106;-76
2022/01/25 10:03:54;;;;;;;36.30;18.23;;;3.60;99.90;;;;;;4973606;28;20026;-74
2022/01/25 10:06:21;;;;;;;31.92;17.20;;;3.60;99.90;;;;;;4973599;28;20569;-78
2022/01/25 10:08:52;;;;;;;32.95;17.00;;;3.50;99.90;;;;;;4976653;28;20034;-76
2022/01/25 10:11:19;;;;;;;;;;;3.60;99.90;;;;;;4977812;28;20385;-77
2022/01/25 10:13:50;;;;;;;34.55;17.88;;;3.60;99.90;;;;;;4977698;28;19910;-78
2022/01/25 10:16:28;;;;;;;31.00;18.48;;;3.60;99.90;;;;;;4977355;28;20409;-76
2022/01/25 10:18:57;;;;;;;31.92;18.17;;;3.60;99.90;;;;;;4977031;28;20031;-74
2022/01/25 10:21:30;;;;;;;32.75;18.02;;;3.70;99.90;;;;;;4977500;28;20054;-74
2022/01/25 10:24:10;;;;;;;32.30;18.50;;;3.90;99.90;;;;;;4977892;28;20113;-73
2022/01/25 10:26:40;;;;;;;35.45;18.33;;;3.90;99.90;;;;;;4977331;28;20023;-73
2022/01/25 10:29:08;;;;;;;36.95;20.77;;;3.90;99.90;;;;;;4977156;28;20496;-74
2022/01/25 10:31:39;;;;;;;32.10;17.60;;;4.00;99.90;;;;;;4976718;28;20027;-74
2022/01/25 10:34:08;;;;;;;30.75;17.00;;;4.10;99.90;;;;;;4977391;28;20058;-78
2022/01/25 10:36:38;;;;;;;36.70;18.60;;;4.10;99.90;;;;;;4976678;28;20077;-76
2022/01/25 10:39:04;;;;;;;35.88;18.48;;;4.10;99.90;;;;;;4976955;28;20019;-78
2022/01/25 10:41:31;;;;;;;33.97;17.85;;;4.00;99.90;;;;;;4977082;28;20528;-78
2022/01/25 10:43:57;;;;;;;37.45;19.27;;;4.00;99.90;;;;;;4977343;28;20536;-76
2022/01/25 10:46:30;;;;;;;35.97;20.30;;;4.00;99.90;;;;;;4977158;28;20061;-79
2022/01/25 10:49:03;;;;;;;36.28;19.38;;;4.00;99.90;;;;;;4959168;28;20424;-76
2022/01/25 10:51:49;;;;;;;38.00;19.63;;;4.00;99.90;;;;;;4959444;28;20082;-74
2022/01/25 10:54:23;;;;;;;34.00;18.13;;;4.10;99.90;;;;;;4976911;28;20031;-74
2022/01/25 10:56:56;;;;;;;37.40;19.77;;;4.20;99.90;;;;;;4977052;28;20022;-74
2022/01/25 10:59:32;;;;;;;38.67;18.33;;;4.20;99.90;;;;;;4976124;28;20487;-79
2022/01/25 11:02:06;;;;;;;38.97;20.60;;;4.30;99.90;;;;;;4940072;29;20042;-82
2022/01/25 11:04:36;;;;;;;38.05;19.17;;;4.20;99.90;;;;;;4957105;28;20393;-77
2022/01/25 11:07:07;;;;;;;36.97;19.95;;;4.30;99.90;;;;;;4955967;29;20102;-73
2022/01/25 11:09:39;;;;;;;35.30;19.95;;;4.30;99.90;;;;;;4974480;28;20493;-77
2022/01/25 11:12:07;;;;;;;36.42;19.58;;;4.40;99.90;;;;;;4976212;28;20067;-78
2022/01/25 11:17:22;;;;;;;42.60;20.20;;;4.50;99.90;;;;;;4976282;28;20101;-74
2022/01/25 11:19:48;;;;;;;;;;;4.40;99.90;;;;;;4976369;28;20042;-78
2022/01/25 11:22:19;;;;;;;37.05;19.48;;;4.40;99.90;;;;;;4958358;28;19906;-78
2022/01/25 11:24:57;;;;;;;37.80;20.20;;;4.30;99.90;;;;;;4972920;28;20374;-75
2022/01/25 11:27:26;;;;;;;43.88;24.67;;;4.30;99.90;;;;;;4976066;28;20029;-74
2022/01/25 11:30:05;;;;;;;48.45;26.65;;;4.30;99.90;;;;;;4986024;28;20121;-74
2022/01/25 11:32:36;;;;;;;39.70;20.98;;;4.40;99.90;;;;;;4976021;28;20031;-74
2022/01/25 11:35:05;;;;;;;45.17;22.60;;;4.50;99.90;;;;;;4975733;28;20027;-74
2022/01/25 11:37:45;;;;;;;42.50;18.52;;;4.40;99.90;;;;;;4975850;28;20031;-74
2022/01/25 11:40:21;;;;;;;38.38;19.73;;;4.40;99.90;;;;;;4975826;28;20046;-74
2022/01/25 11:42:49;;;;;;;39.47;20.77;;;4.50;99.90;;;;;;4976012;28;20081;-74
2022/01/25 11:45:20;;;;;;;44.00;23.67;;;4.60;99.90;;;;;;4975730;28;20034;-74
2022/01/25 11:47:49;;;;;;;42.90;21.27;;;4.60;99.90;;;;;;4975469;28;20026;-74
2022/01/25 11:50:15;;;;;;;43.08;22.50;;;4.50;99.90;;;;;;4975465;28;20029;-75
2022/01/25 11:52:53;;;;;;;42.55;22.13;;;4.40;99.90;;;;;;4975539;28;20082;-75
2022/01/25 11:55:27;;;;;;;40.92;21.98;;;4.30;99.90;;;;;;4975554;28;20043;-75
2022/01/25 11:58:03;;;;;;;42.53;21.40;;;4.30;99.90;;;;;;4975445;28;20027;-75
2022/01/25 12:00:45;;;;;;;42.20;20.52;;;4.50;99.90;;;;;;4975991;28;20105;-74
2022/01/25 12:03:29;;;;;;;42.97;21.38;;;4.70;99.90;;;;;;4975515;28;20030;-75
2022/01/25 12:06:07;;;;;;;45.60;21.05;;;4.80;99.90;;;;;;4975355;28;20031;-74
2022/01/25 12:08:50;;;;;;;41.22;22.42;;;4.80;99.90;;;;;;4975592;28;20135;-75
2022/01/25 12:11:28;;;;;;;45.50;23.08;;;4.70;99.90;;;;;;4975353;28;20106;-74
2022/01/25 12:14:49;;;;;;;46.33;22.35;;;4.70;99.90;;;;;;4975201;28;20030;-74
2022/01/25 12:17:23;;;;;;;39.63;20.63;;;4.60;99.90;;;;;;4935167;29;20028;-75
2022/01/25 12:19:55;;;;;;;41.25;22.02;;;4.60;99.90;;;;;;4934660;29;20032;-74
2022/01/25 12:22:41;;;;;;;38.92;22.00;;;4.70;99.90;;;;;;4962370;28;20035;-75
2022/01/25 12:25:19;;;;;;;39.85;20.08;;;4.90;99.90;;;;;;4975311;28;20037;-75
2022/01/25 12:27:56;;;;;;;43.88;20.70;;;4.80;99.90;;;;;;4975293;28;20362;-74
2022/01/25 12:30:39;;;;;;;38.80;19.13;;;4.70;99.90;;;;;;4974905;28;20077;-74
2022/01/25 12:33:15;;;;;;;45.90;22.48;;;4.70;99.90;;;;;;4957145;28;20030;-74
2022/01/25 12:35:54;;;;;;;43.95;23.42;;;4.80;99.90;;;;;;4974634;28;20070;-74
2022/01/25 12:38:43;;;;;;;45.67;23.45;;;5.00;99.90;;;;;;4974833;28;20477;-74
2022/01/25 12:41:20;;;;;;;42.20;22.65;;;5.00;99.90;;;;;;4975315;28;20023;-75
2022/01/25 12:43:57;;;;;;;36.75;19.88;;;5.00;99.90;;;;;;4975343;28;20027;-74
2022/01/25 12:46:34;;;;;;;35.80;19.80;;;5.00;99.90;;;;;;4974821;28;20026;-74
2022/01/25 12:49:02;;;;;;;40.45;20.02;;;5.10;99.90;;;;;;4974925;28;20485;-74
2022/01/25 12:51:34;;;;;;;39.03;19.95;;;5.10;99.90;;;;;;4974604;28;20030;-74
2022/01/25 12:54:03;;;;;;;35.65;18.38;;;4.90;99.90;;;;;;4974764;28;20532;-75
2022/01/25 12:56:40;;;;;;;32.95;18.08;;;4.90;99.90;;;;;;4974551;28;20015;-75
2022/01/25 12:59:13;;;;;;;39.70;18.83;;;5.00;99.90;;;;;;4974514;28;20081;-75
2022/01/25 13:01:41;;;;;;;36.20;18.23;;;5.10;99.90;;;;;;4975213;28;20082;-75
2022/01/25 13:04:10;;;;;;;35.22;18.77;;;5.10;99.90;;;;;;4974377;28;20037;-74
2022/01/25 13:06:38;;;;;;;37.58;19.25;;;5.20;99.90;;;;;;4974146;28;20050;-74
2022/01/25 13:09:20;;;;;;;37.85;20.25;;;5.20;99.90;;;;;;4974085;28;20074;-74
2022/01/25 13:17:19;;;;;;;38.55;20.13;;;5.20;99.90;;;;;;4974103;28;20023;-74
2022/01/25 13:19:51;;;;;;;39.33;21.77;;;5.20;99.90;;;;;;4974879;28;20027;-74
2022/01/25 13:22:24;;;;;;;42.90;21.63;;;5.30;99.90;;;;;;4974467;28;20050;-74
2022/01/25 13:27:53;;;;;;;42.03;21.47;;;5.20;99.90;;;;;;4974546;28;20031;-74
2022/01/25 13:30:42;;;;;;;42.30;20.40;;;5.20;99.90;;;;;;4974454;28;20026;-74
2022/01/25 13:33:20;;;;;;;43.42;20.27;;;5.20;99.90;;;;;;4974698;28;20469;-75
2022/01/25 13:35:53;;;;;;;39.88;22.00;;;5.10;99.90;;;;;;4974240;28;20023;-75
2022/01/25 13:38:30;;;;;;;39.90;20.90;;;5.20;99.90;;;;;;4974407;28;20023;-74
2022/01/25 13:46:09;;;;;;;44.85;22.73;;;5.20;99.90;;;;;;4978272;28;20026;-75
2022/01/25 13:48:35;;;;;;;50.53;23.85;;;5.40;99.90;;;;;;4977912;28;20425;-74
2022/01/25 13:51:05;;;;;;;47.50;23.02;;;5.40;99.90;;;;;;4978021;28;20030;-74
2022/01/25 13:53:31;;;;;;;43.08;22.25;;;5.20;99.90;;;;;;4978017;28;20027;-73
2022/01/25 13:55:59;;;;;;;42.35;21.95;;;5.30;99.90;;;;;;4977731;28;20118;-74
2022/01/25 13:58:37;;;;;;;41.63;22.95;;;5.40;99.90;;;;;;4977600;28;20030;-74
2022/01/25 14:01:05;;;;;;;39.22;21.73;;;5.30;99.90;;;;;;4978273;28;20054;-74
2022/01/25 14:03:35;;;;;;;47.60;26.08;;;5.40;99.90;;;;;;4977797;28;20023;-74
2022/01/25 14:06:01;;;;;;;46.25;24.25;;;5.20;99.90;;;;;;4977341;28;20018;-74
2022/01/25 14:08:43;;;;;;;46.83;24.73;;;5.10;99.90;;;;;;4977815;28;20043;-74
2022/01/25 14:25:39;;;;;;;43.80;21.75;;;4.80;99.90;;;;;;4977485;28;20524;-74
2022/01/25 14:28:18;;;;;;;47.72;21.23;;;4.90;99.90;;;;;;4977758;28;20031;-75
2022/01/25 14:30:55;;;;;;;47.40;22.50;;;4.80;99.90;;;;;;4959482;28;20031;-74
2022/01/25 14:33:22;;;;;;;41.95;23.60;;;4.80;99.90;;;;;;4977635;28;20102;-75
2022/01/25 14:35:51;;;;;;;45.97;22.90;;;4.80;99.90;;;;;;4976719;28;20029;-75
2022/01/25 14:38:21;;;;;;;55.95;25.55;;;4.70;99.90;;;;;;4976954;28;20508;-74
2022/01/25 14:41:00;;;;;;;47.03;24.40;;;4.70;99.90;;;;;;4976951;28;20105;-76
2022/01/25 14:43:30;;;;;;;45.47;22.70;;;4.80;99.90;;;;;;4976905;28;20041;-74
2022/01/25 14:46:36;;;;;;;51.05;24.48;;;4.90;99.90;;;;;;4977379;28;20027;-74
2022/01/25 14:49:13;;;;;;;41.50;22.13;;;4.90;99.90;;;;;;4977071;28;20089;-74
2022/01/25 14:51:45;;;;;;;50.05;22.75;;;4.90;99.90;;;;;;4977224;28;20030;-74
2022/01/25 14:54:20;;;;;;;74.78;24.65;;;5.00;99.90;;;;;;4976295;28;20024;-74
2022/01/25 14:56:51;;;;;;;47.22;23.92;;;5.00;99.90;;;;;;4959106;28;20034;-74
2022/01/25 14:59:28;;;;;;;50.47;22.25;;;5.10;99.90;;;;;;4976460;28;20085;-74